sensor_id;sensor_type;location;lat;lon;timestamp;P1;durP1;ratioP1;P2;durP2;ratioP2
47225;SDS011;32965;64.142;-21.912;2022-07-10T00:00:54;2.80;;;0.80;;
47225;SDS011;32965;64.142;-21.912;2022-07-10T00:03:26;2.40;;;0.75;;
47225;SDS011;32965;64.142;-21.912;2022-07-10T00:05:53;2.88;;;0.75;;
47225;SDS011;32965;64.142;-21.912;2022-07-10T00:09:01;4.10;;;1.20;;
47225;SDS011;32965;64.142;-21.912;2022-07-10T00:12:11;4.03;;;0.80;;
47225;SDS011;32965;64.142;-21.912;2022-07-10T00:14:54;5.03;;;1.00;;
47225;SDS011;32965;64.142;-21.912;2022-07-10T00:17:42;4.55;;;1.30;;
47225;SDS011;32965;64.142;-21.912;2022-07-10T00:20:29;2.05;;;0.77;;
47225;SDS011;32965;64.142;-21.912;2022-07-10T00:23:19;3.20;;;0.80;;
47225;SDS011;32965;64.142;-21.912;2022-07-10T00:25:48;2.95;;;0.73;;
47225;SDS011;32965;64.142;-21.912;2022-07-10T00:28:23;2.85;;;0.98;;
47225;SDS011;32965;64.142;-21.912;2022-07-10T00:30:56;3.67;;;1.27;;
47225;SDS011;32965;64.142;-21.912;2022-07-10T00:33:42;3.95;;;0.90;;
47225;SDS011;32965;64.142;-21.912;2022-07-10T00:36:29;3.47;;;1.15;;
47225;SDS011;32965;64.142;-21.912;2022-07-10T00:38:56;6.57;;;0.88;;
47225;SDS011;32965;64.142;-21.912;2022-07-10T00:41:22;7.45;;;2.13;;
47225;SDS011;32965;64.142;-21.912;2022-07-10T00:43:53;1.75;;;0.43;;
47225;SDS011;32965;64.142;-21.912;2022-07-10T00:46:49;4.75;;;0.82;;
47225;SDS011;32965;64.142;-21.912;2022-07-10T00:49:17;4.68;;;1.08;;
47225;SDS011;32965;64.142;-21.912;2022-07-10T00:51:43;2.35;;;0.65;;
47225;SDS011;32965;64.142;-21.912;2022-07-10T00:54:09;4.10;;;0.85;;
47225;SDS011;32965;64.142;-21.912;2022-07-10T00:56:36;1.63;;;0.90;;
47225;SDS011;32965;64.142;-21.912;2022-07-10T01:01:38;6.35;;;1.10;;
47225;SDS011;32965;64.142;-21.912;2022-07-10T01:04:05;3.33;;;0.95;;
47225;SDS011;32965;64.142;-21.912;2022-07-10T01:06:31;0.93;;;0.52;;
47225;SDS011;32965;64.142;-21.912;2022-07-10T01:09:45;2.92;;;0.52;;
47225;SDS011;32965;64.142;-21.912;2022-07-10T01:13:09;6.70;;;0.70;;
47225;SDS011;32965;64.142;-21.912;2022-07-10T01:15:38;2.50;;;0.68;;
47225;SDS011;32965;64.142;-21.912;2022-07-10T01:18:26;1.60;;;0.30;;
47225;SDS011;32965;64.142;-21.912;2022-07-10T01:20:55;1.35;;;0.32;;
47225;SDS011;32965;64.142;-21.912;2022-07-10T01:23:22;1.92;;;0.55;;
47225;SDS011;32965;64.142;-21.912;2022-07-10T01:25:50;2.55;;;0.30;;
47225;SDS011;32965;64.142;-21.912;2022-07-10T01:28:16;0.80;;;0.32;;
47225;SDS011;32965;64.142;-21.912;2022-07-10T01:30:46;2.17;;;0.50;;
47225;SDS011;32965;64.142;-21.912;2022-07-10T01:33:13;2.88;;;0.85;;
47225;SDS011;32965;64.142;-21.912;2022-07-10T01:35:40;4.78;;;0.60;;
47225;SDS011;32965;64.142;-21.912;2022-07-10T01:38:06;1.42;;;0.45;;
47225;SDS011;32965;64.142;-21.912;2022-07-10T01:40:32;2.95;;;1.17;;
47225;SDS011;32965;64.142;-21.912;2022-07-10T01:42:58;3.67;;;1.02;;
47225;SDS011;32965;64.142;-21.912;2022-07-10T01:45:24;2.33;;;0.80;;
47225;SDS011;32965;64.142;-21.912;2022-07-10T01:47:50;5.13;;;1.00;;
47225;SDS011;32965;64.142;-21.912;2022-07-10T01:50:19;5.55;;;1.20;;
47225;SDS011;32965;64.142;-21.912;2022-07-10T01:52:58;2.35;;;0.80;;
47225;SDS011;32965;64.142;-21.912;2022-07-10T01:55:24;3.00;;;0.75;;
47225;SDS011;32965;64.142;-21.912;2022-07-10T01:57:51;5.18;;;1.58;;
47225;SDS011;32965;64.142;-21.912;2022-07-10T02:00:17;4.50;;;0.88;;
47225;SDS011;32965;64.142;-21.912;2022-07-10T02:02:44;4.70;;;0.90;;
47225;SDS011;32965;64.142;-21.912;2022-07-10T02:05:30;6.20;;;1.45;;
47225;SDS011;32965;64.142;-21.912;2022-07-10T02:07:55;6.10;;;1.10;;
47225;SDS011;32965;64.142;-21.912;2022-07-10T02:10:21;9.93;;;1.27;;
47225;SDS011;32965;64.142;-21.912;2022-07-10T02:12:47;4.32;;;1.17;;
47225;SDS011;32965;64.142;-21.912;2022-07-10T02:15:13;4.72;;;1.27;;
47225;SDS011;32965;64.142;-21.912;2022-07-10T02:17:39;7.47;;;1.00;;
47225;SDS011;32965;64.142;-21.912;2022-07-10T02:20:04;4.97;;;1.27;;
47225;SDS011;32965;64.142;-21.912;2022-07-10T02:22:31;2.97;;;0.75;;
47225;SDS011;32965;64.142;-21.912;2022-07-10T02:24:57;4.72;;;1.02;;
47225;SDS011;32965;64.142;-21.912;2022-07-10T02:27:22;6.20;;;1.50;;
47225;SDS011;32965;64.142;-21.912;2022-07-10T02:29:48;3.17;;;0.45;;
47225;SDS011;32965;64.142;-21.912;2022-07-10T02:32:14;8.27;;;1.15;;
47225;SDS011;32965;64.142;-21.912;2022-07-10T02:34:40;4.10;;;0.70;;
47225;SDS011;32965;64.142;-21.912;2022-07-10T02:37:05;7.47;;;1.45;;
47225;SDS011;32965;64.142;-21.912;2022-07-10T02:39:33;4.28;;;1.20;;
47225;SDS011;32965;64.142;-21.912;2022-07-10T02:41:59;7.70;;;1.00;;
47225;SDS011;32965;64.142;-21.912;2022-07-10T02:44:25;2.17;;;0.88;;
47225;SDS011;32965;64.142;-21.912;2022-07-10T02:46:52;6.60;;;1.23;;
47225;SDS011;32965;64.142;-21.912;2022-07-10T02:49:17;5.50;;;1.30;;
47225;SDS011;32965;64.142;-21.912;2022-07-10T02:51:43;6.15;;;1.67;;
47225;SDS011;32965;64.142;-21.912;2022-07-10T02:54:09;5.25;;;1.80;;
47225;SDS011;32965;64.142;-21.912;2022-07-10T02:56:35;7.38;;;1.33;;
47225;SDS011;32965;64.142;-21.912;2022-07-10T02:59:01;6.05;;;2.00;;
47225;SDS011;32965;64.142;-21.912;2022-07-10T03:01:27;7.60;;;1.60;;
47225;SDS011;32965;64.142;-21.912;2022-07-10T03:03:53;9.43;;;1.40;;
47225;SDS011;32965;64.142;-21.912;2022-07-10T03:06:19;10.23;;;1.58;;
47225;SDS011;32965;64.142;-21.912;2022-07-10T03:08:44;7.00;;;1.55;;
47225;SDS011;32965;64.142;-21.912;2022-07-10T03:11:10;7.40;;;1.27;;
47225;SDS011;32965;64.142;-21.912;2022-07-10T03:13:36;9.85;;;1.50;;
47225;SDS011;32965;64.142;-21.912;2022-07-10T03:16:02;8.82;;;1.52;;
47225;SDS011;32965;64.142;-21.912;2022-07-10T03:18:28;6.47;;;1.17;;
47225;SDS011;32965;64.142;-21.912;2022-07-10T03:20:53;6.60;;;1.45;;
47225;SDS011;32965;64.142;-21.912;2022-07-10T03:23:19;3.15;;;1.30;;
47225;SDS011;32965;64.142;-21.912;2022-07-10T03:25:45;3.15;;;0.90;;
47225;SDS011;32965;64.142;-21.912;2022-07-10T03:28:11;5.25;;;1.20;;
47225;SDS011;32965;64.142;-21.912;2022-07-10T03:30:36;4.25;;;1.10;;
47225;SDS011;32965;64.142;-21.912;2022-07-10T03:33:02;8.82;;;1.70;;
47225;SDS011;32965;64.142;-21.912;2022-07-10T03:35:28;3.67;;;0.60;;
47225;SDS011;32965;64.142;-21.912;2022-07-10T03:38:01;5.03;;;0.90;;
47225;SDS011;32965;64.142;-21.912;2022-07-10T03:40:28;6.63;;;1.25;;
47225;SDS011;32965;64.142;-21.912;2022-07-10T03:42:54;4.15;;;1.20;;
47225;SDS011;32965;64.142;-21.912;2022-07-10T03:45:20;4.38;;;0.98;;
47225;SDS011;32965;64.142;-21.912;2022-07-10T03:47:45;3.55;;;0.80;;
47225;SDS011;32965;64.142;-21.912;2022-07-10T03:50:11;4.00;;;0.70;;
47225;SDS011;32965;64.142;-21.912;2022-07-10T03:52:37;4.32;;;0.95;;
47225;SDS011;32965;64.142;-21.912;2022-07-10T03:55:03;4.65;;;1.10;;
47225;SDS011;32965;64.142;-21.912;2022-07-10T03:57:29;7.07;;;0.95;;
47225;SDS011;32965;64.142;-21.912;2022-07-10T04:00:13;3.90;;;1.17;;
47225;SDS011;32965;64.142;-21.912;2022-07-10T04:02:39;3.28;;;0.55;;
47225;SDS011;32965;64.142;-21.912;2022-07-10T04:05:06;3.38;;;0.70;;
47225;SDS011;32965;64.142;-21.912;2022-07-10T04:07:34;4.95;;;1.23;;
47225;SDS011;32965;64.142;-21.912;2022-07-10T04:10:02;6.07;;;1.23;;
47225;SDS011;32965;64.142;-21.912;2022-07-10T04:12:28;4.75;;;0.95;;
47225;SDS011;32965;64.142;-21.912;2022-07-10T04:14:54;6.60;;;1.00;;
47225;SDS011;32965;64.142;-21.912;2022-07-10T04:17:21;7.97;;;1.15;;
47225;SDS011;32965;64.142;-21.912;2022-07-10T04:19:47;3.97;;;1.15;;
47225;SDS011;32965;64.142;-21.912;2022-07-10T04:22:13;7.13;;;1.52;;
47225;SDS011;32965;64.142;-21.912;2022-07-10T04:24:39;6.43;;;1.20;;
47225;SDS011;32965;64.142;-21.912;2022-07-10T04:27:04;6.40;;;1.40;;
47225;SDS011;32965;64.142;-21.912;2022-07-10T04:29:31;8.70;;;1.48;;
47225;SDS011;32965;64.142;-21.912;2022-07-10T04:31:58;8.20;;;1.30;;
47225;SDS011;32965;64.142;-21.912;2022-07-10T04:34:24;8.20;;;1.10;;
47225;SDS011;32965;64.142;-21.912;2022-07-10T04:36:51;7.85;;;1.13;;
47225;SDS011;32965;64.142;-21.912;2022-07-10T04:39:16;10.43;;;1.77;;
47225;SDS011;32965;64.142;-21.912;2022-07-10T04:41:42;7.35;;;1.30;;
47225;SDS011;32965;64.142;-21.912;2022-07-10T04:44:08;12.85;;;1.90;;
47225;SDS011;32965;64.142;-21.912;2022-07-10T04:46:34;9.30;;;1.95;;
47225;SDS011;32965;64.142;-21.912;2022-07-10T04:48:59;8.32;;;1.50;;
47225;SDS011;32965;64.142;-21.912;2022-07-10T04:51:25;9.18;;;2.30;;
47225;SDS011;32965;64.142;-21.912;2022-07-10T04:53:52;9.18;;;1.27;;
47225;SDS011;32965;64.142;-21.912;2022-07-10T04:56:17;9.60;;;2.17;;
47225;SDS011;32965;64.142;-21.912;2022-07-10T04:58:43;9.55;;;1.70;;
47225;SDS011;32965;64.142;-21.912;2022-07-10T05:01:09;7.72;;;1.48;;
47225;SDS011;32965;64.142;-21.912;2022-07-10T05:03:35;7.75;;;1.45;;
47225;SDS011;32965;64.142;-21.912;2022-07-10T05:06:00;5.25;;;1.13;;
47225;SDS011;32965;64.142;-21.912;2022-07-10T05:08:26;4.15;;;1.00;;
47225;SDS011;32965;64.142;-21.912;2022-07-10T05:10:52;3.78;;;0.70;;
47225;SDS011;32965;64.142;-21.912;2022-07-10T05:13:18;3.97;;;1.55;;
47225;SDS011;32965;64.142;-21.912;2022-07-10T05:15:45;6.13;;;2.33;;
47225;SDS011;32965;64.142;-21.912;2022-07-10T05:18:12;3.83;;;0.70;;
47225;SDS011;32965;64.142;-21.912;2022-07-10T05:20:38;2.58;;;0.47;;
47225;SDS011;32965;64.142;-21.912;2022-07-10T05:23:07;3.42;;;1.10;;
47225;SDS011;32965;64.142;-21.912;2022-07-10T05:25:33;1.75;;;0.60;;
47225;SDS011;32965;64.142;-21.912;2022-07-10T05:27:59;1.42;;;0.43;;
47225;SDS011;32965;64.142;-21.912;2022-07-10T05:30:24;4.30;;;0.73;;
47225;SDS011;32965;64.142;-21.912;2022-07-10T05:32:50;1.77;;;0.38;;
47225;SDS011;32965;64.142;-21.912;2022-07-10T05:35:16;4.18;;;1.13;;
47225;SDS011;32965;64.142;-21.912;2022-07-10T05:37:43;2.45;;;0.70;;
47225;SDS011;32965;64.142;-21.912;2022-07-10T05:40:09;3.42;;;0.85;;
47225;SDS011;32965;64.142;-21.912;2022-07-10T05:42:35;2.67;;;0.45;;
47225;SDS011;32965;64.142;-21.912;2022-07-10T05:45:01;4.28;;;0.77;;
47225;SDS011;32965;64.142;-21.912;2022-07-10T05:47:27;2.97;;;0.82;;
47225;SDS011;32965;64.142;-21.912;2022-07-10T05:49:52;5.03;;;1.13;;
47225;SDS011;32965;64.142;-21.912;2022-07-10T05:52:18;3.72;;;1.05;;
47225;SDS011;32965;64.142;-21.912;2022-07-10T05:54:45;6.90;;;1.00;;
47225;SDS011;32965;64.142;-21.912;2022-07-10T05:57:11;2.90;;;0.60;;
47225;SDS011;32965;64.142;-21.912;2022-07-10T05:59:37;3.42;;;0.70;;
47225;SDS011;32965;64.142;-21.912;2022-07-10T06:02:02;2.92;;;0.60;;
47225;SDS011;32965;64.142;-21.912;2022-07-10T06:04:30;5.28;;;0.85;;
47225;SDS011;32965;64.142;-21.912;2022-07-10T06:06:56;3.25;;;0.80;;
47225;SDS011;32965;64.142;-21.912;2022-07-10T06:09:22;3.05;;;0.60;;
47225;SDS011;32965;64.142;-21.912;2022-07-10T06:11:48;4.70;;;0.85;;
47225;SDS011;32965;64.142;-21.912;2022-07-10T06:14:15;4.78;;;0.93;;
47225;SDS011;32965;64.142;-21.912;2022-07-10T06:16:41;7.03;;;0.82;;
47225;SDS011;32965;64.142;-21.912;2022-07-10T06:19:07;5.18;;;1.00;;
47225;SDS011;32965;64.142;-21.912;2022-07-10T06:21:32;5.00;;;1.15;;
47225;SDS011;32965;64.142;-21.912;2022-07-10T06:23:59;4.30;;;0.90;;
47225;SDS011;32965;64.142;-21.912;2022-07-10T06:26:25;6.35;;;1.30;;
47225;SDS011;32965;64.142;-21.912;2022-07-10T06:28:51;3.55;;;1.00;;
47225;SDS011;32965;64.142;-21.912;2022-07-10T06:31:17;4.78;;;0.80;;
47225;SDS011;32965;64.142;-21.912;2022-07-10T06:33:42;6.40;;;1.00;;
47225;SDS011;32965;64.142;-21.912;2022-07-10T06:36:08;6.03;;;0.80;;
47225;SDS011;32965;64.142;-21.912;2022-07-10T06:38:34;3.58;;;0.70;;
47225;SDS011;32965;64.142;-21.912;2022-07-10T06:41:00;3.90;;;0.80;;
47225;SDS011;32965;64.142;-21.912;2022-07-10T06:43:26;4.07;;;0.90;;
47225;SDS011;32965;64.142;-21.912;2022-07-10T06:45:51;3.28;;;0.47;;
47225;SDS011;32965;64.142;-21.912;2022-07-10T06:48:18;2.22;;;0.50;;
47225;SDS011;32965;64.142;-21.912;2022-07-10T06:50:45;2.30;;;0.40;;
47225;SDS011;32965;64.142;-21.912;2022-07-10T06:53:11;3.97;;;0.30;;
47225;SDS011;32965;64.142;-21.912;2022-07-10T06:55:37;1.88;;;0.40;;
47225;SDS011;32965;64.142;-21.912;2022-07-10T06:58:03;2.85;;;0.55;;
47225;SDS011;32965;64.142;-21.912;2022-07-10T07:00:29;5.18;;;0.77;;
47225;SDS011;32965;64.142;-21.912;2022-07-10T07:02:55;6.25;;;1.20;;
47225;SDS011;32965;64.142;-21.912;2022-07-10T07:05:21;2.90;;;0.65;;
47225;SDS011;32965;64.142;-21.912;2022-07-10T07:07:47;5.70;;;1.23;;
47225;SDS011;32965;64.142;-21.912;2022-07-10T07:10:12;3.80;;;0.60;;
47225;SDS011;32965;64.142;-21.912;2022-07-10T07:12:39;5.88;;;0.73;;
47225;SDS011;32965;64.142;-21.912;2022-07-10T07:15:05;4.43;;;0.60;;
47225;SDS011;32965;64.142;-21.912;2022-07-10T07:17:32;3.65;;;0.80;;
47225;SDS011;32965;64.142;-21.912;2022-07-10T07:20:11;2.13;;;0.55;;
47225;SDS011;32965;64.142;-21.912;2022-07-10T07:22:56;4.82;;;0.90;;
47225;SDS011;32965;64.142;-21.912;2022-07-10T07:25:40;4.13;;;0.90;;
47225;SDS011;32965;64.142;-21.912;2022-07-10T07:28:14;5.28;;;1.52;;
47225;SDS011;32965;64.142;-21.912;2022-07-10T07:33:07;3.08;;;0.52;;
47225;SDS011;32965;64.142;-21.912;2022-07-10T07:35:33;2.70;;;0.70;;
47225;SDS011;32965;64.142;-21.912;2022-07-10T07:38:00;7.03;;;1.25;;
47225;SDS011;32965;64.142;-21.912;2022-07-10T07:40:26;3.97;;;0.60;;
47225;SDS011;32965;64.142;-21.912;2022-07-10T07:42:52;6.05;;;0.98;;
47225;SDS011;32965;64.142;-21.912;2022-07-10T07:45:19;5.70;;;0.80;;
47225;SDS011;32965;64.142;-21.912;2022-07-10T07:47:49;3.08;;;0.47;;
47225;SDS011;32965;64.142;-21.912;2022-07-10T07:50:17;4.47;;;0.75;;
47225;SDS011;32965;64.142;-21.912;2022-07-10T07:52:44;1.13;;;0.20;;
47225;SDS011;32965;64.142;-21.912;2022-07-10T07:55:11;1.48;;;0.50;;
47225;SDS011;32965;64.142;-21.912;2022-07-10T07:57:39;4.13;;;0.90;;
47225;SDS011;32965;64.142;-21.912;2022-07-10T08:00:07;2.63;;;1.00;;
47225;SDS011;32965;64.142;-21.912;2022-07-10T08:02:34;4.93;;;1.10;;
47225;SDS011;32965;64.142;-21.912;2022-07-10T08:05:00;6.35;;;1.10;;
47225;SDS011;32965;64.142;-21.912;2022-07-10T08:07:36;4.63;;;1.30;;
47225;SDS011;32965;64.142;-21.912;2022-07-10T08:10:13;3.17;;;0.85;;
47225;SDS011;32965;64.142;-21.912;2022-07-10T08:12:44;1.17;;;0.38;;
47225;SDS011;32965;64.142;-21.912;2022-07-10T08:15:11;1.75;;;0.70;;
47225;SDS011;32965;64.142;-21.912;2022-07-10T08:17:38;2.83;;;0.40;;
47225;SDS011;32965;64.142;-21.912;2022-07-10T08:20:05;1.20;;;0.40;;
47225;SDS011;32965;64.142;-21.912;2022-07-10T08:22:34;3.38;;;0.93;;
47225;SDS011;32965;64.142;-21.912;2022-07-10T08:25:00;1.13;;;0.35;;
47225;SDS011;32965;64.142;-21.912;2022-07-10T08:27:26;3.25;;;0.47;;
47225;SDS011;32965;64.142;-21.912;2022-07-10T08:29:51;3.20;;;0.40;;
47225;SDS011;32965;64.142;-21.912;2022-07-10T08:32:17;1.27;;;0.22;;
47225;SDS011;32965;64.142;-21.912;2022-07-10T08:34:43;0.77;;;0.15;;
47225;SDS011;32965;64.142;-21.912;2022-07-10T08:37:09;1.35;;;0.25;;
47225;SDS011;32965;64.142;-21.912;2022-07-10T08:39:35;1.35;;;0.10;;
47225;SDS011;32965;64.142;-21.912;2022-07-10T08:42:04;1.05;;;0.20;;
47225;SDS011;32965;64.142;-21.912;2022-07-10T08:44:30;1.73;;;0.30;;
47225;SDS011;32965;64.142;-21.912;2022-07-10T08:46:56;0.22;;;0.10;;
47225;SDS011;32965;64.142;-21.912;2022-07-10T08:49:29;1.02;;;0.20;;
47225;SDS011;32965;64.142;-21.912;2022-07-10T08:54:33;2.10;;;0.68;;
47225;SDS011;32965;64.142;-21.912;2022-07-10T08:57:00;1.00;;;0.30;;
47225;SDS011;32965;64.142;-21.912;2022-07-10T08:59:27;0.30;;;0.20;;
47225;SDS011;32965;64.142;-21.912;2022-07-10T09:01:53;2.40;;;0.38;;
47225;SDS011;32965;64.142;-21.912;2022-07-10T09:04:20;0.43;;;0.20;;
47225;SDS011;32965;64.142;-21.912;2022-07-10T09:06:47;0.32;;;0.20;;
47225;SDS011;32965;64.142;-21.912;2022-07-10T09:09:15;0.75;;;0.20;;
47225;SDS011;32965;64.142;-21.912;2022-07-10T09:11:41;0.32;;;0.10;;
47225;SDS011;32965;64.142;-21.912;2022-07-10T09:14:10;0.57;;;0.25;;
47225;SDS011;32965;64.142;-21.912;2022-07-10T09:16:40;0.25;;;0.10;;
47225;SDS011;32965;64.142;-21.912;2022-07-10T09:21:53;1.65;;;0.30;;
47225;SDS011;32965;64.142;-21.912;2022-07-10T09:24:37;1.40;;;0.35;;
47225;SDS011;32965;64.142;-21.912;2022-07-10T09:27:04;3.25;;;0.57;;
47225;SDS011;32965;64.142;-21.912;2022-07-10T09:29:31;0.70;;;0.50;;
47225;SDS011;32965;64.142;-21.912;2022-07-10T09:31:59;2.45;;;0.45;;
47225;SDS011;32965;64.142;-21.912;2022-07-10T09:40:01;0.93;;;0.45;;
47225;SDS011;32965;64.142;-21.912;2022-07-10T09:47:36;1.05;;;0.40;;
47225;SDS011;32965;64.142;-21.912;2022-07-10T09:50:04;2.05;;;0.50;;
47225;SDS011;32965;64.142;-21.912;2022-07-10T09:52:45;2.20;;;0.47;;
47225;SDS011;32965;64.142;-21.912;2022-07-10T09:55:12;1.20;;;0.30;;
47225;SDS011;32965;64.142;-21.912;2022-07-10T09:57:39;0.90;;;0.40;;
47225;SDS011;32965;64.142;-21.912;2022-07-10T10:00:08;0.82;;;0.63;;
47225;SDS011;32965;64.142;-21.912;2022-07-10T10:02:35;3.35;;;0.30;;
47225;SDS011;32965;64.142;-21.912;2022-07-10T10:05:01;0.43;;;0.22;;
47225;SDS011;32965;64.142;-21.912;2022-07-10T10:07:27;0.38;;;0.20;;
47225;SDS011;32965;64.142;-21.912;2022-07-10T10:09:53;0.85;;;0.15;;
47225;SDS011;32965;64.142;-21.912;2022-07-10T10:12:38;0.22;;;0.13;;
47225;SDS011;32965;64.142;-21.912;2022-07-10T10:15:10;1.35;;;0.20;;
47225;SDS011;32965;64.142;-21.912;2022-07-10T10:17:36;0.10;;;0.03;;
47225;SDS011;32965;64.142;-21.912;2022-07-10T10:20:03;0.15;;;0.03;;
47225;SDS011;32965;64.142;-21.912;2022-07-10T10:22:49;0.15;;;0.10;;
47225;SDS011;32965;64.142;-21.912;2022-07-10T10:25:17;0.80;;;0.10;;
47225;SDS011;32965;64.142;-21.912;2022-07-10T10:27:43;0.82;;;0.10;;
47225;SDS011;32965;64.142;-21.912;2022-07-10T10:30:10;0.15;;;0.00;;
47225;SDS011;32965;64.142;-21.912;2022-07-10T10:32:39;0.00;;;0.00;;
47225;SDS011;32965;64.142;-21.912;2022-07-10T10:35:06;0.20;;;0.00;;
47225;SDS011;32965;64.142;-21.912;2022-07-10T10:37:35;0.20;;;0.03;;
47225;SDS011;32965;64.142;-21.912;2022-07-10T10:40:03;0.73;;;0.47;;
47225;SDS011;32965;64.142;-21.912;2022-07-10T10:48:09;1.60;;;0.10;;
47225;SDS011;32965;64.142;-21.912;2022-07-10T10:53:23;0.00;;;0.00;;
47225;SDS011;32965;64.142;-21.912;2022-07-10T10:58:37;0.00;;;0.00;;
47225;SDS011;32965;64.142;-21.912;2022-07-10T11:01:05;0.70;;;0.10;;
47225;SDS011;32965;64.142;-21.912;2022-07-10T11:06:41;0.70;;;0.13;;
47225;SDS011;32965;64.142;-21.912;2022-07-10T11:12:00;1.90;;;0.10;;
47225;SDS011;32965;64.142;-21.912;2022-07-10T11:14:30;0.95;;;0.38;;
47225;SDS011;32965;64.142;-21.912;2022-07-10T11:16:57;0.30;;;0.30;;
47225;SDS011;32965;64.142;-21.912;2022-07-10T11:19:24;0.77;;;0.13;;
47225;SDS011;32965;64.142;-21.912;2022-07-10T11:27:56;1.30;;;0.52;;
47225;SDS011;32965;64.142;-21.912;2022-07-10T11:30:45;1.13;;;0.30;;
47225;SDS011;32965;64.142;-21.912;2022-07-10T11:33:13;2.45;;;0.30;;
47225;SDS011;32965;64.142;-21.912;2022-07-10T11:35:40;0.93;;;0.38;;
47225;SDS011;32965;64.142;-21.912;2022-07-10T11:38:05;1.98;;;0.50;;
47225;SDS011;32965;64.142;-21.912;2022-07-10T11:40:35;0.45;;;0.15;;
47225;SDS011;32965;64.142;-21.912;2022-07-10T11:43:04;1.83;;;0.47;;
47225;SDS011;32965;64.142;-21.912;2022-07-10T11:45:32;0.43;;;0.00;;
47225;SDS011;32965;64.142;-21.912;2022-07-10T11:48:01;1.65;;;0.10;;
47225;SDS011;32965;64.142;-21.912;2022-07-10T11:50:33;0.88;;;0.20;;
47225;SDS011;32965;64.142;-21.912;2022-07-10T11:53:01;0.10;;;0.00;;
47225;SDS011;32965;64.142;-21.912;2022-07-10T11:55:28;0.03;;;0.03;;
47225;SDS011;32965;64.142;-21.912;2022-07-10T11:57:56;0.15;;;0.10;;
47225;SDS011;32965;64.142;-21.912;2022-07-10T12:00:25;0.10;;;0.10;;
47225;SDS011;32965;64.142;-21.912;2022-07-10T12:02:53;0.05;;;0.00;;
47225;SDS011;32965;64.142;-21.912;2022-07-10T12:08:04;0.20;;;0.20;;
47225;SDS011;32965;64.142;-21.912;2022-07-10T12:10:31;0.30;;;0.10;;
47225;SDS011;32965;64.142;-21.912;2022-07-10T12:13:04;0.00;;;0.00;;
47225;SDS011;32965;64.142;-21.912;2022-07-10T12:15:34;0.75;;;0.05;;
47225;SDS011;32965;64.142;-21.912;2022-07-10T12:18:03;0.20;;;0.10;;
47225;SDS011;32965;64.142;-21.912;2022-07-10T12:20:29;0.13;;;0.00;;
47225;SDS011;32965;64.142;-21.912;2022-07-10T12:22:56;0.10;;;0.08;;
47225;SDS011;32965;64.142;-21.912;2022-07-10T12:25:22;0.10;;;0.10;;
47225;SDS011;32965;64.142;-21.912;2022-07-10T12:27:51;0.10;;;0.10;;
47225;SDS011;32965;64.142;-21.912;2022-07-10T12:30:21;0.20;;;0.10;;
47225;SDS011;32965;64.142;-21.912;2022-07-10T12:32:47;0.50;;;0.15;;
47225;SDS011;32965;64.142;-21.912;2022-07-10T12:35:13;1.83;;;0.30;;
47225;SDS011;32965;64.142;-21.912;2022-07-10T12:37:48;0.38;;;0.15;;
47225;SDS011;32965;64.142;-21.912;2022-07-10T12:40:30;0.10;;;0.10;;
47225;SDS011;32965;64.142;-21.912;2022-07-10T12:43:03;0.88;;;0.10;;
47225;SDS011;32965;64.142;-21.912;2022-07-10T12:45:30;1.15;;;0.20;;
47225;SDS011;32965;64.142;-21.912;2022-07-10T12:47:56;1.08;;;0.20;;
47225;SDS011;32965;64.142;-21.912;2022-07-10T12:50:23;0.20;;;0.10;;
47225;SDS011;32965;64.142;-21.912;2022-07-10T12:52:50;0.50;;;0.30;;
47225;SDS011;32965;64.142;-21.912;2022-07-10T12:55:39;0.80;;;0.60;;
47225;SDS011;32965;64.142;-21.912;2022-07-10T12:58:07;2.47;;;1.20;;
47225;SDS011;32965;64.142;-21.912;2022-07-10T13:00:44;3.30;;;0.45;;
47225;SDS011;32965;64.142;-21.912;2022-07-10T13:03:22;1.92;;;0.47;;
47225;SDS011;32965;64.142;-21.912;2022-07-10T13:05:49;3.13;;;1.13;;
47225;SDS011;32965;64.142;-21.912;2022-07-10T13:08:15;1.02;;;0.65;;
47225;SDS011;32965;64.142;-21.912;2022-07-10T13:10:56;1.63;;;0.40;;
47225;SDS011;32965;64.142;-21.912;2022-07-10T13:13:26;1.27;;;0.35;;
47225;SDS011;32965;64.142;-21.912;2022-07-10T13:15:53;1.42;;;0.80;;
47225;SDS011;32965;64.142;-21.912;2022-07-10T13:18:23;1.88;;;0.73;;
47225;SDS011;32965;64.142;-21.912;2022-07-10T13:20:53;2.45;;;0.40;;
47225;SDS011;32965;64.142;-21.912;2022-07-10T13:23:20;0.73;;;0.28;;
47225;SDS011;32965;64.142;-21.912;2022-07-10T13:25:53;0.75;;;0.30;;
47225;SDS011;32965;64.142;-21.912;2022-07-10T13:28:24;1.38;;;0.30;;
47225;SDS011;32965;64.142;-21.912;2022-07-10T13:30:50;1.27;;;0.50;;
47225;SDS011;32965;64.142;-21.912;2022-07-10T13:33:16;1.27;;;0.50;;
47225;SDS011;32965;64.142;-21.912;2022-07-10T13:35:42;1.67;;;0.50;;
47225;SDS011;32965;64.142;-21.912;2022-07-10T13:38:08;4.05;;;0.90;;
47225;SDS011;32965;64.142;-21.912;2022-07-10T13:40:36;2.00;;;0.80;;
47225;SDS011;32965;64.142;-21.912;2022-07-10T13:43:03;2.75;;;1.00;;
47225;SDS011;32965;64.142;-21.912;2022-07-10T13:45:29;3.50;;;0.80;;
47225;SDS011;32965;64.142;-21.912;2022-07-10T13:48:01;1.40;;;0.63;;
47225;SDS011;32965;64.142;-21.912;2022-07-10T13:50:28;2.88;;;1.00;;
47225;SDS011;32965;64.142;-21.912;2022-07-10T13:52:54;2.30;;;1.20;;
47225;SDS011;32965;64.142;-21.912;2022-07-10T13:55:20;2.85;;;0.80;;
47225;SDS011;32965;64.142;-21.912;2022-07-10T13:57:46;1.83;;;0.90;;
47225;SDS011;32965;64.142;-21.912;2022-07-10T14:00:13;1.38;;;0.70;;
47225;SDS011;32965;64.142;-21.912;2022-07-10T14:02:40;2.75;;;1.00;;
47225;SDS011;32965;64.142;-21.912;2022-07-10T14:05:06;4.50;;;1.45;;
47225;SDS011;32965;64.142;-21.912;2022-07-10T14:07:35;1.52;;;0.63;;
47225;SDS011;32965;64.142;-21.912;2022-07-10T14:10:01;1.95;;;0.40;;
47225;SDS011;32965;64.142;-21.912;2022-07-10T14:12:27;1.02;;;0.50;;
47225;SDS011;32965;64.142;-21.912;2022-07-10T14:14:53;2.25;;;0.50;;
47225;SDS011;32965;64.142;-21.912;2022-07-10T14:17:19;4.18;;;0.90;;
47225;SDS011;32965;64.142;-21.912;2022-07-10T14:19:46;1.05;;;0.50;;
47225;SDS011;32965;64.142;-21.912;2022-07-10T14:22:12;1.98;;;0.35;;
47225;SDS011;32965;64.142;-21.912;2022-07-10T14:24:37;1.60;;;0.38;;
47225;SDS011;32965;64.142;-21.912;2022-07-10T14:27:03;2.15;;;0.60;;
47225;SDS011;32965;64.142;-21.912;2022-07-10T14:29:29;3.63;;;1.23;;
47225;SDS011;32965;64.142;-21.912;2022-07-10T14:31:55;3.67;;;1.33;;
47225;SDS011;32965;64.142;-21.912;2022-07-10T14:34:22;1.27;;;0.68;;
47225;SDS011;32965;64.142;-21.912;2022-07-10T14:36:50;2.30;;;0.80;;
47225;SDS011;32965;64.142;-21.912;2022-07-10T14:39:16;1.92;;;0.75;;
47225;SDS011;32965;64.142;-21.912;2022-07-10T14:41:42;7.40;;;3.45;;
47225;SDS011;32965;64.142;-21.912;2022-07-10T14:44:07;5.82;;;1.27;;
47225;SDS011;32965;64.142;-21.912;2022-07-10T14:46:33;0.80;;;0.70;;
47225;SDS011;32965;64.142;-21.912;2022-07-10T14:48:59;2.20;;;0.50;;
47225;SDS011;32965;64.142;-21.912;2022-07-10T14:51:26;3.45;;;0.45;;
47225;SDS011;32965;64.142;-21.912;2022-07-10T14:53:52;1.13;;;0.55;;
47225;SDS011;32965;64.142;-21.912;2022-07-10T14:56:19;0.75;;;0.30;;
47225;SDS011;32965;64.142;-21.912;2022-07-10T14:58:45;0.63;;;0.35;;
47225;SDS011;32965;64.142;-21.912;2022-07-10T15:01:11;0.30;;;0.30;;
47225;SDS011;32965;64.142;-21.912;2022-07-10T15:03:38;1.23;;;0.43;;
47225;SDS011;32965;64.142;-21.912;2022-07-10T15:06:04;0.85;;;0.30;;
47225;SDS011;32965;64.142;-21.912;2022-07-10T15:08:30;1.00;;;0.35;;
47225;SDS011;32965;64.142;-21.912;2022-07-10T15:10:56;0.75;;;0.32;;
47225;SDS011;32965;64.142;-21.912;2022-07-10T15:13:24;0.65;;;0.47;;
47225;SDS011;32965;64.142;-21.912;2022-07-10T15:15:51;0.40;;;0.30;;